sensor_id;sensor_type;location;lat;lon;timestamp;temperature;humidity
52621;DHT22;38515;53.160;6.990;2023-02-22T00:00:41;8.40;99.90
52621;DHT22;38515;53.160;6.990;2023-02-22T00:03:18;8.40;99.90
52621;DHT22;38515;53.160;6.990;2023-02-22T00:05:54;8.40;99.90
52621;DHT22;38515;53.160;6.990;2023-02-22T00:08:25;8.40;99.90
52621;DHT22;38515;53.160;6.990;2023-02-22T00:11:03;8.40;99.90
52621;DHT22;38515;53.160;6.990;2023-02-22T00:13:33;8.40;99.90
52621;DHT22;38515;53.160;6.990;2023-02-22T00:15:59;8.40;99.90
52621;DHT22;38515;53.160;6.990;2023-02-22T00:18:28;8.40;99.90
52621;DHT22;38515;53.160;6.990;2023-02-22T00:20:59;8.40;99.90
52621;DHT22;38515;53.160;6.990;2023-02-22T00:23:27;8.40;99.90
52621;DHT22;38515;53.160;6.990;2023-02-22T00:25:54;8.40;99.90
52621;DHT22;38515;53.160;6.990;2023-02-22T00:28:21;8.30;99.90
52621;DHT22;38515;53.160;6.990;2023-02-22T00:30:49;8.30;99.90
52621;DHT22;38515;53.160;6.990;2023-02-22T00:33:16;8.30;99.90
52621;DHT22;38515;53.160;6.990;2023-02-22T00:35:43;8.30;99.90
52621;DHT22;38515;53.160;6.990;2023-02-22T00:38:15;8.30;99.90
52621;DHT22;38515;53.160;6.990;2023-02-22T00:40:41;8.30;99.90
52621;DHT22;38515;53.160;6.990;2023-02-22T00:43:07;8.30;99.90
52621;DHT22;38515;53.160;6.990;2023-02-22T00:45:35;8.30;99.90
52621;DHT22;38515;53.160;6.990;2023-02-22T00:48:02;8.30;99.90
52621;DHT22;38515;53.160;6.990;2023-02-22T00:50:30;8.30;99.90
52621;DHT22;38515;53.160;6.990;2023-02-22T00:52:57;8.30;99.90
52621;DHT22;38515;53.160;6.990;2023-02-22T00:55:27;8.30;99.90
52621;DHT22;38515;53.160;6.990;2023-02-22T00:57:53;8.30;99.90
52621;DHT22;38515;53.160;6.990;2023-02-22T01:00:28;8.30;99.90
52621;DHT22;38515;53.160;6.990;2023-02-22T01:02:55;8.30;99.90
52621;DHT22;38515;53.160;6.990;2023-02-22T01:05:23;8.20;99.90
52621;DHT22;38515;53.160;6.990;2023-02-22T01:07:49;8.20;99.90
52621;DHT22;38515;53.160;6.990;2023-02-22T01:10:21;8.20;99.90
52621;DHT22;38515;53.160;6.990;2023-02-22T01:12:48;8.20;99.90
52621;DHT22;38515;53.160;6.990;2023-02-22T01:15:17;8.20;99.90
52621;DHT22;38515;53.160;6.990;2023-02-22T01:17:47;8.20;99.90
52621;DHT22;38515;53.160;6.990;2023-02-22T01:20:14;8.20;99.90
52621;DHT22;38515;53.160;6.990;2023-02-22T01:22:48;8.20;99.90
52621;DHT22;38515;53.160;6.990;2023-02-22T01:25:20;8.20;99.90
52621;DHT22;38515;53.160;6.990;2023-02-22T01:27:46;8.20;99.90
52621;DHT22;38515;53.160;6.990;2023-02-22T01:30:13;9.30;99.90
52621;DHT22;38515;53.160;6.990;2023-02-22T01:32:40;8.20;99.90
52621;DHT22;38515;53.160;6.990;2023-02-22T01:35:10;8.10;99.90
52621;DHT22;38515;53.160;6.990;2023-02-22T01:37:39;8.10;99.90
52621;DHT22;38515;53.160;6.990;2023-02-22T01:40:06;8.10;99.90
52621;DHT22;38515;53.160;6.990;2023-02-22T01:42:33;8.10;99.90
52621;DHT22;38515;53.160;6.990;2023-02-22T01:45:40;8.10;99.90
52621;DHT22;38515;53.160;6.990;2023-02-22T01:48:08;8.10;99.90
52621;DHT22;38515;53.160;6.990;2023-02-22T01:50:39;8.00;99.90
52621;DHT22;38515;53.160;6.990;2023-02-22T01:53:07;8.10;99.90
52621;DHT22;38515;53.160;6.990;2023-02-22T01:55:34;8.00;99.90
52621;DHT22;38515;53.160;6.990;2023-02-22T01:58:02;8.00;99.90
52621;DHT22;38515;53.160;6.990;2023-02-22T02:00:29;8.00;99.90
52621;DHT22;38515;53.160;6.990;2023-02-22T02:03:01;8.00;99.90
52621;DHT22;38515;53.160;6.990;2023-02-22T02:05:28;8.00;99.90
52621;DHT22;38515;53.160;6.990;2023-02-22T02:07:58;8.00;99.90
52621;DHT22;38515;53.160;6.990;2023-02-22T02:10:28;8.00;99.90
52621;DHT22;38515;53.160;6.990;2023-02-22T02:12:55;8.00;99.90
52621;DHT22;38515;53.160;6.990;2023-02-22T02:15:30;8.00;99.90
52621;DHT22;38515;53.160;6.990;2023-02-22T02:18:03;8.00;99.90
52621;DHT22;38515;53.160;6.990;2023-02-22T02:24:17;8.00;99.90
52621;DHT22;38515;53.160;6.990;2023-02-22T02:26:23;8.00;99.90
52621;DHT22;38515;53.160;6.990;2023-02-22T02:29:17;8.00;99.90
52621;DHT22;38515;53.160;6.990;2023-02-22T02:37:46;8.00;99.90
52621;DHT22;38515;53.160;6.990;2023-02-22T02:48:26;7.90;99.90
52621;DHT22;38515;53.160;6.990;2023-02-22T02:50:55;7.90;99.90
52621;DHT22;38515;53.160;6.990;2023-02-22T02:53:26;7.90;99.90
52621;DHT22;38515;53.160;6.990;2023-02-22T02:55:58;7.90;99.90
52621;DHT22;38515;53.160;6.990;2023-02-22T02:58:24;7.90;99.90
52621;DHT22;38515;53.160;6.990;2023-02-22T03:00:54;7.90;99.90
52621;DHT22;38515;53.160;6.990;2023-02-22T03:03:44;7.90;99.90
52621;DHT22;38515;53.160;6.990;2023-02-22T03:09:36;7.90;99.90
52621;DHT22;38515;53.160;6.990;2023-02-22T03:12:09;7.90;99.90
52621;DHT22;38515;53.160;6.990;2023-02-22T03:14:53;7.80;99.90
52621;DHT22;38515;53.160;6.990;2023-02-22T03:17:50;7.80;99.90
52621;DHT22;38515;53.160;6.990;2023-02-22T03:23:28;7.80;99.90
52621;DHT22;38515;53.160;6.990;2023-02-22T03:26:03;7.80;99.90
52621;DHT22;38515;53.160;6.990;2023-02-22T03:28:29;7.90;99.90
52621;DHT22;38515;53.160;6.990;2023-02-22T03:31:05;7.80;99.90
52621;DHT22;38515;53.160;6.990;2023-02-22T03:33:45;7.90;99.90
52621;DHT22;38515;53.160;6.990;2023-02-22T03:37:02;7.90;99.90
52621;DHT22;38515;53.160;6.990;2023-02-22T03:39:12;7.90;99.90
52621;DHT22;38515;53.160;6.990;2023-02-22T03:41:44;7.90;99.90
52621;DHT22;38515;53.160;6.990;2023-02-22T03:44:16;7.90;99.90
52621;DHT22;38515;53.160;6.990;2023-02-22T03:46:44;7.80;99.90
52621;DHT22;38515;53.160;6.990;2023-02-22T03:51:47;6.90;99.90
52621;DHT22;38515;53.160;6.990;2023-02-22T03:54:12;7.90;99.90
52621;DHT22;38515;53.160;6.990;2023-02-22T03:56:59;7.90;99.90
52621;DHT22;38515;53.160;6.990;2023-02-22T03:59:28;7.80;99.90
52621;DHT22;38515;53.160;6.990;2023-02-22T04:01:55;7.80;99.90
52621;DHT22;38515;53.160;6.990;2023-02-22T04:04:22;7.80;99.90
52621;DHT22;38515;53.160;6.990;2023-02-22T04:06:48;7.90;99.90
52621;DHT22;38515;53.160;6.990;2023-02-22T04:09:15;7.90;99.90
52621;DHT22;38515;53.160;6.990;2023-02-22T04:11:42;7.90;99.90
52621;DHT22;38515;53.160;6.990;2023-02-22T04:14:08;7.80;99.90
52621;DHT22;38515;53.160;6.990;2023-02-22T04:16:34;7.80;99.90
52621;DHT22;38515;53.160;6.990;2023-02-22T04:19:00;7.80;99.90
52621;DHT22;38515;53.160;6.990;2023-02-22T04:21:26;7.80;99.90
52621;DHT22;38515;53.160;6.990;2023-02-22T04:23:52;7.90;99.90
52621;DHT22;38515;53.160;6.990;2023-02-22T04:26:18;7.80;99.90
52621;DHT22;38515;53.160;6.990;2023-02-22T04:28:44;7.80;99.90
52621;DHT22;38515;53.160;6.990;2023-02-22T04:31:09;7.80;99.90
52621;DHT22;38515;53.160;6.990;2023-02-22T04:33:35;7.80;99.90
52621;DHT22;38515;53.160;6.990;2023-02-22T04:36:02;7.80;99.90
52621;DHT22;38515;53.160;6.990;2023-02-22T04:38:28;7.80;99.90
52621;DHT22;38515;53.160;6.990;2023-02-22T04:40:54;7.80;99.90
52621;DHT22;38515;53.160;6.990;2023-02-22T04:43:20;7.80;99.90
52621;DHT22;38515;53.160;6.990;2023-02-22T04:45:46;7.80;99.90
52621;DHT22;38515;53.160;6.990;2023-02-22T04:48:12;7.70;99.90
52621;DHT22;38515;53.160;6.990;2023-02-22T04:50:38;7.40;99.90
52621;DHT22;38515;53.160;6.990;2023-02-22T04:53:05;7.80;99.90
52621;DHT22;38515;53.160;6.990;2023-02-22T04:55:31;7.80;99.90
52621;DHT22;38515;53.160;6.990;2023-02-22T04:57:58;7.80;99.90
52621;DHT22;38515;53.160;6.990;2023-02-22T05:00:24;7.70;99.90
52621;DHT22;38515;53.160;6.990;2023-02-22T05:02:50;7.70;99.90
52621;DHT22;38515;53.160;6.990;2023-02-22T05:05:19;7.70;99.90
52621;DHT22;38515;53.160;6.990;2023-02-22T05:07:47;7.70;99.90
52621;DHT22;38515;53.160;6.990;2023-02-22T05:10:14;7.70;99.90
52621;DHT22;38515;53.160;6.990;2023-02-22T05:12:40;7.70;99.90
52621;DHT22;38515;53.160;6.990;2023-02-22T05:15:08;7.70;99.90
52621;DHT22;38515;53.160;6.990;2023-02-22T05:17:34;7.70;99.90
52621;DHT22;38515;53.160;6.990;2023-02-22T05:20:02;7.70;99.90
52621;DHT22;38515;53.160;6.990;2023-02-22T05:22:28;7.70;99.90
52621;DHT22;38515;53.160;6.990;2023-02-22T05:24:54;7.70;99.90
52621;DHT22;38515;53.160;6.990;2023-02-22T05:27:21;7.70;99.90
52621;DHT22;38515;53.160;6.990;2023-02-22T05:29:48;7.70;99.90
52621;DHT22;38515;53.160;6.990;2023-02-22T05:32:13;7.70;99.90
52621;DHT22;38515;53.160;6.990;2023-02-22T05:34:40;7.70;99.90
52621;DHT22;38515;53.160;6.990;2023-02-22T05:37:06;7.70;99.90
52621;DHT22;38515;53.160;6.990;2023-02-22T05:39:32;7.70;99.90
52621;DHT22;38515;53.160;6.990;2023-02-22T05:42:01;7.60;99.90
52621;DHT22;38515;53.160;6.990;2023-02-22T05:44:27;7.60;99.90
52621;DHT22;38515;53.160;6.990;2023-02-22T05:46:53;7.60;99.90
52621;DHT22;38515;53.160;6.990;2023-02-22T05:49:19;7.60;99.90
52621;DHT22;38515;53.160;6.990;2023-02-22T05:51:45;7.60;99.90
52621;DHT22;38515;53.160;6.990;2023-02-22T05:54:11;7.60;99.90
52621;DHT22;38515;53.160;6.990;2023-02-22T05:56:37;7.70;99.90
52621;DHT22;38515;53.160;6.990;2023-02-22T05:59:03;7.60;99.90
52621;DHT22;38515;53.160;6.990;2023-02-22T06:01:29;7.60;99.90
52621;DHT22;38515;53.160;6.990;2023-02-22T06:03:54;7.60;99.90
52621;DHT22;38515;53.160;6.990;2023-02-22T06:06:20;7.60;99.90
52621;DHT22;38515;53.160;6.990;2023-02-22T06:08:46;7.60;99.90
52621;DHT22;38515;53.160;6.990;2023-02-22T06:11:13;7.50;99.90
52621;DHT22;38515;53.160;6.990;2023-02-22T06:13:39;7.60;99.90
52621;DHT22;38515;53.160;6.990;2023-02-22T06:16:05;7.60;99.90
52621;DHT22;38515;53.160;6.990;2023-02-22T06:18:32;7.60;99.90
52621;DHT22;38515;53.160;6.990;2023-02-22T06:20:58;7.60;99.90
52621;DHT22;38515;53.160;6.990;2023-02-22T06:23:25;7.60;99.90
52621;DHT22;38515;53.160;6.990;2023-02-22T06:25:51;7.50;99.90
52621;DHT22;38515;53.160;6.990;2023-02-22T06:28:17;7.50;99.90
52621;DHT22;38515;53.160;6.990;2023-02-22T06:30:43;7.50;99.90
52621;DHT22;38515;53.160;6.990;2023-02-22T06:33:10;7.50;99.90
52621;DHT22;38515;53.160;6.990;2023-02-22T06:35:36;7.50;99.90
52621;DHT22;38515;53.160;6.990;2023-02-22T06:38:02;7.60;99.90
52621;DHT22;38515;53.160;6.990;2023-02-22T06:40:28;7.60;99.90
52621;DHT22;38515;53.160;6.990;2023-02-22T06:42:55;7.60;99.90
52621;DHT22;38515;53.160;6.990;2023-02-22T06:45:21;7.60;99.90
52621;DHT22;38515;53.160;6.990;2023-02-22T06:47:47;7.60;99.90
52621;DHT22;38515;53.160;6.990;2023-02-22T06:50:23;7.60;99.90
52621;DHT22;38515;53.160;6.990;2023-02-22T06:52:49;7.60;99.90
52621;DHT22;38515;53.160;6.990;2023-02-22T06:55:17;7.60;99.90
52621;DHT22;38515;53.160;6.990;2023-02-22T06:57:43;7.60;99.90
52621;DHT22;38515;53.160;6.990;2023-02-22T07:00:10;7.60;99.90
52621;DHT22;38515;53.160;6.990;2023-02-22T07:02:36;7.60;99.90
52621;DHT22;38515;53.160;6.990;2023-02-22T07:05:03;7.60;99.90
52621;DHT22;38515;53.160;6.990;2023-02-22T07:07:28;7.60;99.90
52621;DHT22;38515;53.160;6.990;2023-02-22T07:09:54;7.60;99.90
52621;DHT22;38515;53.160;6.990;2023-02-22T07:12:20;7.70;99.90
52621;DHT22;38515;53.160;6.990;2023-02-22T07:14:46;7.60;99.90
52621;DHT22;38515;53.160;6.990;2023-02-22T07:17:15;7.60;99.90
52621;DHT22;38515;53.160;6.990;2023-02-22T07:19:41;7.70;99.90
52621;DHT22;38515;53.160;6.990;2023-02-22T07:22:06;7.60;99.90
52621;DHT22;38515;53.160;6.990;2023-02-22T07:24:32;7.60;99.90
52621;DHT22;38515;53.160;6.990;2023-02-22T07:27:00;7.70;99.90
52621;DHT22;38515;53.160;6.990;2023-02-22T07:29:27;7.70;99.90
52621;DHT22;38515;53.160;6.990;2023-02-22T07:31:53;7.80;99.90
52621;DHT22;38515;53.160;6.990;2023-02-22T07:34:19;7.80;99.90
52621;DHT22;38515;53.160;6.990;2023-02-22T07:36:45;7.80;99.90
52621;DHT22;38515;53.160;6.990;2023-02-22T07:39:11;7.80;99.90
52621;DHT22;38515;53.160;6.990;2023-02-22T07:41:37;7.80;99.90
52621;DHT22;38515;53.160;6.990;2023-02-22T07:44:03;7.90;99.90
52621;DHT22;38515;53.160;6.990;2023-02-22T07:46:29;7.90;99.90
52621;DHT22;38515;53.160;6.990;2023-02-22T07:48:55;8.00;99.90
52621;DHT22;38515;53.160;6.990;2023-02-22T07:51:20;7.90;99.90
52621;DHT22;38515;53.160;6.990;2023-02-22T07:53:47;8.00;99.90
52621;DHT22;38515;53.160;6.990;2023-02-22T07:56:13;8.00;99.90
52621;DHT22;38515;53.160;6.990;2023-02-22T07:58:39;8.00;99.90
52621;DHT22;38515;53.160;6.990;2023-02-22T08:01:05;8.00;99.90
52621;DHT22;38515;53.160;6.990;2023-02-22T08:03:32;8.10;99.90
52621;DHT22;38515;53.160;6.990;2023-02-22T08:06:01;8.00;99.90
52621;DHT22;38515;53.160;6.990;2023-02-22T08:08:28;8.10;99.90
52621;DHT22;38515;53.160;6.990;2023-02-22T08:10:54;8.20;99.90
52621;DHT22;38515;53.160;6.990;2023-02-22T08:13:21;8.20;99.90
52621;DHT22;38515;53.160;6.990;2023-02-22T08:15:50;8.40;99.90
52621;DHT22;38515;53.160;6.990;2023-02-22T08:18:18;8.40;99.90
52621;DHT22;38515;53.160;6.990;2023-02-22T08:20:45;8.40;99.90
52621;DHT22;38515;53.160;6.990;2023-02-22T08:23:13;8.40;99.90
52621;DHT22;38515;53.160;6.990;2023-02-22T08:25:39;8.40;99.90
52621;DHT22;38515;53.160;6.990;2023-02-22T08:28:08;8.50;99.90
52621;DHT22;38515;53.160;6.990;2023-02-22T08:30:35;8.50;99.90
52621;DHT22;38515;53.160;6.990;2023-02-22T08:33:01;8.50;99.90
52621;DHT22;38515;53.160;6.990;2023-02-22T08:35:28;8.50;99.90
52621;DHT22;38515;53.160;6.990;2023-02-22T08:38:01;8.50;99.90
52621;DHT22;38515;53.160;6.990;2023-02-22T08:40:30;8.50;99.90
52621;DHT22;38515;53.160;6.990;2023-02-22T08:42:57;8.50;99.90
52621;DHT22;38515;53.160;6.990;2023-02-22T08:45:23;8.60;99.90
52621;DHT22;38515;53.160;6.990;2023-02-22T08:47:49;8.60;99.90
52621;DHT22;38515;53.160;6.990;2023-02-22T08:50:20;8.60;99.90
52621;DHT22;38515;53.160;6.990;2023-02-22T08:52:48;8.70;99.90
52621;DHT22;38515;53.160;6.990;2023-02-22T08:55:14;8.80;99.90
52621;DHT22;38515;53.160;6.990;2023-02-22T08:57:40;8.80;99.90
52621;DHT22;38515;53.160;6.990;2023-02-22T09:00:06;8.80;99.90
52621;DHT22;38515;53.160;6.990;2023-02-22T09:02:32;8.70;99.90
52621;DHT22;38515;53.160;6.990;2023-02-22T09:04:58;8.80;99.90
52621;DHT22;38515;53.160;6.990;2023-02-22T09:07:24;8.80;99.90
52621;DHT22;38515;53.160;6.990;2023-02-22T09:09:50;8.80;99.90
52621;DHT22;38515;53.160;6.990;2023-02-22T09:12:16;8.80;99.90
52621;DHT22;38515;53.160;6.990;2023-02-22T09:14:41;8.70;99.90
52621;DHT22;38515;53.160;6.990;2023-02-22T09:17:08;8.60;99.90
52621;DHT22;38515;53.160;6.990;2023-02-22T09:19:34;8.60;99.90
52621;DHT22;38515;53.160;6.990;2023-02-22T09:22:00;8.60;99.90
52621;DHT22;38515;53.160;6.990;2023-02-22T09:24:26;8.60;99.90
52621;DHT22;38515;53.160;6.990;2023-02-22T09:26:52;8.70;99.90
52621;DHT22;38515;53.160;6.990;2023-02-22T09:29:23;8.70;99.90
52621;DHT22;38515;53.160;6.990;2023-02-22T09:31:50;8.80;99.90
52621;DHT22;38515;53.160;6.990;2023-02-22T09:34:17;8.80;99.90
52621;DHT22;38515;53.160;6.990;2023-02-22T09:36:46;8.90;99.90
52621;DHT22;38515;53.160;6.990;2023-02-22T09:39:13;8.90;99.90
52621;DHT22;38515;53.160;6.990;2023-02-22T09:41:57;8.80;99.90
52621;DHT22;38515;53.160;6.990;2023-02-22T09:47:43;8.80;99.90
52621;DHT22;38515;53.160;6.990;2023-02-22T09:50:15;8.80;99.90
52621;DHT22;38515;53.160;6.990;2023-02-22T09:56:08;8.80;99.90
52621;DHT22;38515;53.160;6.990;2023-02-22T09:58:39;8.70;99.90
52621;DHT22;38515;53.160;6.990;2023-02-22T10:04:07;8.80;99.90
52621;DHT22;38515;53.160;6.990;2023-02-22T10:06:36;8.80;99.90
52621;DHT22;38515;53.160;6.990;2023-02-22T10:09:04;9.00;99.90
52621;DHT22;38515;53.160;6.990;2023-02-22T10:14:41;9.10;99.90
52621;DHT22;38515;53.160;6.990;2023-02-22T10:25:21;8.90;99.90
52621;DHT22;38515;53.160;6.990;2023-02-22T10:33:08;8.90;99.90
52621;DHT22;38515;53.160;6.990;2023-02-22T10:35:37;8.90;99.90
52621;DHT22;38515;53.160;6.990;2023-02-22T10:38:25;8.90;99.90
52621;DHT22;38515;53.160;6.990;2023-02-22T10:41:19;8.90;99.90
52621;DHT22;38515;53.160;6.990;2023-02-22T10:43:45;8.80;99.90
52621;DHT22;38515;53.160;6.990;2023-02-22T10:46:15;8.70;99.90
52621;DHT22;38515;53.160;6.990;2023-02-22T10:48:44;8.70;99.90
52621;DHT22;38515;53.160;6.990;2023-02-22T10:51:11;8.80;99.90
52621;DHT22;38515;53.160;6.990;2023-02-22T10:53:38;8.80;99.90
52621;DHT22;38515;53.160;6.990;2023-02-22T10:56:22;8.90;99.90
52621;DHT22;38515;53.160;6.990;2023-02-22T10:59:02;9.00;99.90
52621;DHT22;38515;53.160;6.990;2023-02-22T11:06:22;9.10;99.90
52621;DHT22;38515;53.160;6.990;2023-02-22T11:08:48;9.10;99.90
52621;DHT22;38515;53.160;6.990;2023-02-22T11:11:25;9.00;99.90
52621;DHT22;38515;53.160;6.990;2023-02-22T11:13:55;9.00;99.90
52621;DHT22;38515;53.160;6.990;2023-02-22T11:21:35;8.90;99.90
52621;DHT22;38515;53.160;6.990;2023-02-22T11:24:04;8.90;99.90
52621;DHT22;38515;53.160;6.990;2023-02-22T11:26:44;8.90;99.90
52621;DHT22;38515;53.160;6.990;2023-02-22T11:29:28;8.90;99.90
52621;DHT22;38515;53.160;6.990;2023-02-22T11:32:01;8.90;99.90
52621;DHT22;38515;53.160;6.990;2023-02-22T11:34:37;8.70;99.90
52621;DHT22;38515;53.160;6.990;2023-02-22T11:37:29;8.80;99.90
52621;DHT22;38515;53.160;6.990;2023-02-22T11:40:22;8.80;99.90
52621;DHT22;38515;53.160;6.990;2023-02-22T11:43:05;8.70;99.90
52621;DHT22;38515;53.160;6.990;2023-02-22T11:45:32;8.70;99.90
52621;DHT22;38515;53.160;6.990;2023-02-22T11:48:01;8.90;99.90
52621;DHT22;38515;53.160;6.990;2023-02-22T11:54:11;8.90;99.90
52621;DHT22;38515;53.160;6.990;2023-02-22T11:56:43;9.10;99.90
52621;DHT22;38515;53.160;6.990;2023-02-22T12:02:14;9.40;99.90
52621;DHT22;38515;53.160;6.990;2023-02-22T12:04:51;9.50;99.90
52621;DHT22;38515;53.160;6.990;2023-02-22T12:10:18;9.60;99.90
52621;DHT22;38515;53.160;6.990;2023-02-22T12:16:05;9.40;99.90
52621;DHT22;38515;53.160;6.990;2023-02-22T12:18:59;9.00;99.90
52621;DHT22;38515;53.160;6.990;2023-02-22T12:21:30;8.70;99.90
52621;DHT22;38515;53.160;6.990;2023-02-22T12:24:05;8.70;99.90
52621;DHT22;38515;53.160;6.990;2023-02-22T12:26:41;8.70;99.90
52621;DHT22;38515;53.160;6.990;2023-02-22T12:34:50;8.60;99.90
52621;DHT22;38515;53.160;6.990;2023-02-22T12:42:44;8.70;99.90
52621;DHT22;38515;53.160;6.990;2023-02-22T12:45:21;8.70;99.90
52621;DHT22;38515;53.160;6.990;2023-02-22T12:47:54;8.80;99.90
52621;DHT22;38515;53.160;6.990;2023-02-22T12:50:27;9.00;99.90
52621;DHT22;38515;53.160;6.990;2023-02-22T12:55:47;8.90;99.90
52621;DHT22;38515;53.160;6.990;2023-02-22T12:58:30;9.00;99.90
52621;DHT22;38515;53.160;6.990;2023-02-22T13:01:04;9.00;99.90
52621;DHT22;38515;53.160;6.990;2023-02-22T13:03:35;9.10;99.90
52621;DHT22;38515;53.160;6.990;2023-02-22T13:09:32;9.20;99.90
52621;DHT22;38515;53.160;6.990;2023-02-22T13:23:13;9.80;99.90
52621;DHT22;38515;53.160;6.990;2023-02-22T13:26:00;9.70;99.90
52621;DHT22;38515;53.160;6.990;2023-02-22T13:48:22;9.80;99.90
52621;DHT22;38515;53.160;6.990;2023-02-22T13:53:35;9.60;99.90
52621;DHT22;38515;53.160;6.990;2023-02-22T13:56:04;9.60;99.90
52621;DHT22;38515;53.160;6.990;2023-02-22T13:58:31;9.60;99.90
52621;DHT22;38515;53.160;6.990;2023-02-22T14:00:58;9.60;99.90
52621;DHT22;38515;53.160;6.990;2023-02-22T14:06:04;9.60;99.90
52621;DHT22;38515;53.160;6.990;2023-02-22T14:10:59;9.50;99.90
52621;DHT22;38515;53.160;6.990;2023-02-22T14:13:27;9.40;99.90
52621;DHT22;38515;53.160;6.990;2023-02-22T14:18:35;9.30;99.90
52621;DHT22;38515;53.160;6.990;2023-02-22T14:21:20;9.30;99.90
52621;DHT22;38515;53.160;6.990;2023-02-22T14:23:50;9.40;99.90
52621;DHT22;38515;53.160;6.990;2023-02-22T14:26:30;9.50;99.90
52621;DHT22;38515;53.160;6.990;2023-02-22T14:31:59;9.40;99.90
52621;DHT22;38515;53.160;6.990;2023-02-22T14:34:55;9.50;99.90
52621;DHT22;38515;53.160;6.990;2023-02-22T14:37:33;9.50;99.90
52621;DHT22;38515;53.160;6.990;2023-02-22T14:40:02;9.60;99.90
52621;DHT22;38515;53.160;6.990;2023-02-22T14:45:25;9.70;99.90
52621;DHT22;38515;53.160;6.990;2023-02-22T14:58:57;9.70;99.90
52621;DHT22;38515;53.160;6.990;2023-02-22T15:01:28;9.70;99.90
52621;DHT22;38515;53.160;6.990;2023-02-22T15:04:28;9.70;99.90
52621;DHT22;38515;53.160;6.990;2023-02-22T15:06:59;9.70;99.90
52621;DHT22;38515;53.160;6.990;2023-02-22T15:09:30;9.60;99.90
52621;DHT22;38515;53.160;6.990;2023-02-22T15:14:33;9.60;99.90
52621;DHT22;38515;53.160;6.990;2023-02-22T15:17:07;9.60;99.90
52621;DHT22;38515;53.160;6.990;2023-02-22T15:19:37;9.60;99.90
52621;DHT22;38515;53.160;6.990;2023-02-22T15:22:04;9.50;99.90
52621;DHT22;38515;53.160;6.990;2023-02-22T15:24:35;9.50;99.90
52621;DHT22;38515;53.160;6.990;2023-02-22T15:27:11;9.40;99.90
52621;DHT22;38515;53.160;6.990;2023-02-22T15:29:40;9.50;99.90
52621;DHT22;38515;53.160;6.990;2023-02-22T15:32:29;9.40;99.90
52621;DHT22;38515;53.160;6.990;2023-02-22T15:35:04;9.30;99.90
52621;DHT22;38515;53.160;6.990;2023-02-22T15:37:30;9.30;99.90
52621;DHT22;38515;53.160;6.990;2023-02-22T15:40:07;9.30;99.90
52621;DHT22;38515;53.160;6.990;2023-02-22T15:42:52;9.30;99.90
52621;DHT22;38515;53.160;6.990;2023-02-22T15:45:20;9.30;99.90
52621;DHT22;38515;53.160;6.990;2023-02-22T15:47:51;9.20;99.90
52621;DHT22;38515;53.160;6.990;2023-02-22T15:50:57;9.30;99.90
52621;DHT22;38515;53.160;6.990;2023-02-22T15:54:04;8.90;99.90
52621;DHT22;38515;53.160;6.990;2023-02-22T15:56:34;9.20;99.90
52621;DHT22;38515;53.160;6.990;2023-02-22T16:06:00;9.00;99.90
52621;DHT22;38515;53.160;6.990;2023-02-22T16:08:44;9.10;99.90
52621;DHT22;38515;53.160;6.990;2023-02-22T16:11:22;9.00;99.90
52621;DHT22;38515;53.160;6.990;2023-02-22T16:14:00;9.00;99.90
52621;DHT22;38515;53.160;6.990;2023-02-22T16:16:34;9.00;99.90
52621;DHT22;38515;53.160;6.990;2023-02-22T16:19:27;8.90;99.90
52621;DHT22;38515;53.160;6.990;2023-02-22T16:21:55;8.90;99.90
52621;DHT22;38515;53.160;6.990;2023-02-22T16:24:41;8.90;99.90
52621;DHT22;38515;53.160;6.990;2023-02-22T16:29:40;8.80;99.90
52621;DHT22;38515;53.160;6.990;2023-02-22T16:32:06;8.80;99.90
52621;DHT22;38515;53.160;6.990;2023-02-22T16:34:32;8.80;99.90
52621;DHT22;38515;53.160;6.990;2023-02-22T16:36:58;8.80;99.90
52621;DHT22;38515;53.160;6.990;2023-02-22T16:39:29;8.80;99.90
52621;DHT22;38515;53.160;6.990;2023-02-22T16:41:58;8.80;99.90
52621;DHT22;38515;53.160;6.990;2023-02-22T16:44:25;8.80;99.90
52621;DHT22;38515;53.160;6.990;2023-02-22T16:46:53;8.50;99.90
52621;DHT22;38515;53.160;6.990;2023-02-22T16:49:20;8.70;99.90
52621;DHT22;38515;53.160;6.990;2023-02-22T16:51:52;8.60;99.90
52621;DHT22;38515;53.160;6.990;2023-02-22T16:54:27;8.70;99.90
52621;DHT22;38515;53.160;6.990;2023-02-22T16:56:57;8.70;99.90
52621;DHT22;38515;53.160;6.990;2023-02-22T16:59:27;8.50;99.90
52621;DHT22;38515;53.160;6.990;2023-02-22T17:01:58;8.60;99.90
52621;DHT22;38515;53.160;6.990;2023-02-22T17:04:24;8.50;99.90
52621;DHT22;38515;53.160;6.990;2023-02-22T17:06:51;8.50;99.90
52621;DHT22;38515;53.160;6.990;2023-02-22T17:09:18;8.50;99.90
52621;DHT22;38515;53.160;6.990;2023-02-22T17:11:49;8.50;99.90
52621;DHT22;38515;53.160;6.990;2023-02-22T17:14:18;8.50;99.90
52621;DHT22;38515;53.160;6.990;2023-02-22T17:16:51;8.50;99.90
52621;DHT22;38515;53.160;6.990;2023-02-22T17:19:19;8.50;99.90
52621;DHT22;38515;53.160;6.990;2023-02-22T17:21:46;8.80;99.90
52621;DHT22;38515;53.160;6.990;2023-02-22T17:24:14;8.40;99.90
52621;DHT22;38515;53.160;6.990;2023-02-22T17:26:41;8.40;99.90
52621;DHT22;38515;53.160;6.990;2023-02-22T17:29:07;8.40;99.90
52621;DHT22;38515;53.160;6.990;2023-02-22T17:31:33;8.40;99.90
52621;DHT22;38515;53.160;6.990;2023-02-22T17:34:01;8.40;99.90
52621;DHT22;38515;53.160;6.990;2023-02-22T17:36:32;8.30;99.90
52621;DHT22;38515;53.160;6.990;2023-02-22T17:38:59;8.30;99.90
52621;DHT22;38515;53.160;6.990;2023-02-22T17:41:25;8.30;99.90
52621;DHT22;38515;53.160;6.990;2023-02-22T17:43:51;8.30;99.90
52621;DHT22;38515;53.160;6.990;2023-02-22T17:46:19;8.30;99.90
52621;DHT22;38515;53.160;6.990;2023-02-22T17:48:45;8.30;99.90
52621;DHT22;38515;53.160;6.990;2023-02-22T17:51:13;8.30;99.90
52621;DHT22;38515;53.160;6.990;2023-02-22T17:53:39;8.30;99.90
52621;DHT22;38515;53.160;6.990;2023-02-22T17:56:10;8.20;99.90
52621;DHT22;38515;53.160;6.990;2023-02-22T17:58:39;8.20;99.90
52621;DHT22;38515;53.160;6.990;2023-02-22T18:01:05;8.20;99.90
52621;DHT22;38515;53.160;6.990;2023-02-22T18:03:32;8.20;99.90
52621;DHT22;38515;53.160;6.990;2023-02-22T18:05:59;8.20;99.90
52621;DHT22;38515;53.160;6.990;2023-02-22T18:08:27;8.20;99.90
52621;DHT22;38515;53.160;6.990;2023-02-22T18:10:54;8.20;99.90
52621;DHT22;38515;53.160;6.990;2023-02-22T18:13:25;8.20;99.90
52621;DHT22;38515;53.160;6.990;2023-02-22T18:15:52;8.20;99.90
52621;DHT22;38515;53.160;6.990;2023-02-22T18:18:24;8.20;99.90
52621;DHT22;38515;53.160;6.990;2023-02-22T18:20:50;8.10;99.90
52621;DHT22;38515;53.160;6.990;2023-02-22T18:23:19;8.20;99.90
52621;DHT22;38515;53.160;6.990;2023-02-22T18:25:48;8.20;99.90
52621;DHT22;38515;53.160;6.990;2023-02-22T18:28:16;8.20;99.90
52621;DHT22;38515;53.160;6.990;2023-02-22T18:30:42;8.20;99.90
52621;DHT22;38515;53.160;6.990;2023-02-22T18:33:08;8.20;99.90
52621;DHT22;38515;53.160;6.990;2023-02-22T18:35:43;8.10;99.90
52621;DHT22;38515;53.160;6.990;2023-02-22T18:38:09;8.20;99.90
52621;DHT22;38515;53.160;6.990;2023-02-22T18:40:42;8.20;99.90
52621;DHT22;38515;53.160;6.990;2023-02-22T18:43:11;8.10;99.90
52621;DHT22;38515;53.160;6.990;2023-02-22T18:45:37;8.10;99.90